Weather at Crisfield Municipal Airport

Public forecast

Using degrees Fahrenheit for public forecast. Weather courtesy of forecast.io.

Closest aviation weather report (METAR) to Crisfield Municipal Airport

Closest report is Tangier Island Airport, 14.1 nm (26.1 km) SW. Retrieved 2021/06/23 02:55 UTC (15 minutes ago):

KTGI 230255Z AUTO 36013G17KT 10SM CLR 21/13 A2999 RMK AO1 T02090131

Closest aviation forecast (TAF) to Crisfield Municipal Airport

Closest forecast is Salisbury Ocean City Wicomico Regional Airport, 24.5 nm (45.4 km) NE. Retrieved 2021-06-23 00:22 UTC (3 hours ago):

TAF KSBY 222320Z 2300/2324 30005KT P6SM BKN100 FM230400 33004KT P6SM BKN250 FM230900 36004KT P6SM SCT250 FM231500 02009KT P6SM SKC FM232100 06006KT P6SM SKC